createdAt,value
2018-12-19T00:00:40.748Z,1.50
2018-12-19T00:03:09.215Z,1.50
2018-12-19T00:05:37.715Z,1.30
2018-12-19T00:08:06.091Z,1.30
2018-12-19T00:10:34.631Z,1.30
2018-12-19T00:13:02.945Z,1.20
2018-12-19T00:15:31.221Z,1.20
2018-12-19T00:17:59.676Z,1.10
2018-12-19T00:20:27.936Z,1.10
2018-12-19T00:22:56.320Z,1.10
2018-12-19T00:25:24.701Z,1.10
2018-12-19T00:27:53.015Z,1.10
2018-12-19T00:30:21.385Z,1.10
2018-12-19T00:32:49.837Z,1.10
2018-12-19T00:35:18.196Z,1.00
2018-12-19T00:37:46.683Z,1.10
2018-12-19T00:40:15.000Z,1.10
2018-12-19T00:42:43.306Z,1.10
2018-12-19T00:45:11.620Z,1.10
2018-12-19T00:47:39.996Z,1.20
2018-12-19T00:50:08.297Z,1.10
2018-12-19T00:52:36.626Z,1.10
2018-12-19T00:55:05.736Z,1.10
2018-12-19T00:57:34.061Z,1.10
2018-12-19T01:00:02.365Z,1.20
2018-12-19T01:02:30.699Z,1.20
2018-12-19T01:04:59.225Z,1.20
2018-12-19T01:07:27.671Z,1.10
2018-12-19T01:09:55.971Z,1.20
2018-12-19T01:12:24.265Z,1.30
2018-12-19T01:14:52.628Z,1.30
2018-12-19T01:17:20.918Z,1.30
2018-12-19T01:19:49.335Z,1.30
2018-12-19T01:24:45.772Z,1.20
2018-12-19T01:27:14.049Z,1.20
2018-12-19T01:29:42.450Z,1.20
2018-12-19T01:32:10.760Z,1.20
2018-12-19T01:34:39.087Z,1.10
2018-12-19T01:37:07.359Z,1.20
2018-12-19T01:39:35.705Z,1.20
2018-12-19T01:44:32.103Z,1.10
2018-12-19T01:51:56.476Z,1.10
2018-12-19T01:54:24.839Z,1.10
2018-12-19T01:56:53.167Z,1.10
2018-12-19T01:59:21.515Z,1.00
2018-12-19T02:06:45.989Z,1.80
2018-12-19T02:11:43.422Z,2.00
2018-12-19T02:14:11.824Z,0.80
2018-12-19T02:16:40.127Z,0.80
2018-12-19T02:19:08.500Z,0.80
2018-12-19T02:21:36.868Z,0.80
2018-12-19T02:24:05.248Z,0.80
2018-12-19T02:26:33.517Z,0.80
2018-12-19T02:29:01.901Z,0.90
2018-12-19T02:31:30.201Z,0.90
2018-12-19T02:33:58.504Z,0.90
2018-12-19T02:38:54.859Z,0.90
2018-12-19T02:43:51.284Z,0.90
2018-12-19T02:46:19.789Z,0.90
2018-12-19T02:48:48.083Z,1.00
2018-12-19T02:51:16.393Z,1.00
2018-12-19T02:53:44.656Z,1.10
2018-12-19T03:03:37.244Z,1.20
2018-12-19T03:06:05.545Z,1.30
2018-12-19T03:08:33.820Z,1.30
2018-12-19T03:11:02.639Z,1.30
2018-12-19T03:15:59.466Z,1.10
2018-12-19T03:18:27.875Z,1.00
2018-12-19T03:20:56.175Z,0.80
2018-12-19T03:23:24.701Z,0.60
2018-12-19T03:25:53.008Z,0.40
2018-12-19T03:28:21.335Z,0.30
2018-12-19T03:30:49.877Z,0.30
2018-12-19T03:33:18.163Z,0.20
2018-12-19T03:35:46.459Z,0.20
2018-12-19T03:38:16.498Z,0.10
2018-12-19T03:40:44.843Z,0.10
2018-12-19T03:43:13.125Z,0.10
2018-12-19T03:45:41.425Z,0.10
2018-12-19T03:48:11.460Z,0.10
2018-12-19T03:50:39.801Z,0.20
2018-12-19T03:53:08.169Z,0.20
2018-12-19T03:58:04.586Z,0.30
2018-12-19T04:00:32.885Z,0.30
2018-12-19T04:03:01.222Z,0.40
2018-12-19T04:05:29.666Z,0.40
2018-12-19T04:10:25.984Z,0.50
2018-12-19T04:12:54.402Z,0.50
2018-12-19T04:15:22.673Z,0.60
2018-12-19T04:17:50.994Z,0.50
2018-12-19T04:20:19.268Z,0.60
2018-12-19T04:22:47.626Z,0.50
2018-12-19T04:25:15.933Z,0.50
2018-12-19T04:27:44.314Z,0.50
2018-12-19T04:30:12.685Z,0.50
2018-12-19T04:32:41.211Z,0.60
2018-12-19T04:35:09.545Z,0.60
2018-12-19T04:37:37.883Z,0.70
2018-12-19T04:40:06.275Z,0.80
2018-12-19T04:42:34.821Z,0.80
2018-12-19T04:45:03.196Z,0.80
2018-12-19T04:47:31.500Z,0.90
2018-12-19T04:49:59.780Z,0.90
2018-12-19T04:54:56.253Z,0.90
2018-12-19T04:57:24.621Z,0.90
2018-12-19T04:59:52.893Z,0.90
2018-12-19T05:02:21.191Z,0.90
2018-12-19T05:04:49.551Z,0.90
2018-12-19T05:07:18.873Z,0.90
2018-12-19T05:09:47.157Z,1.00
2018-12-19T05:12:15.463Z,1.00
2018-12-19T05:17:12.259Z,1.10
2018-12-19T05:24:36.772Z,1.20
2018-12-19T05:29:33.177Z,1.30
2018-12-19T05:32:01.501Z,1.30
2018-12-19T05:34:29.769Z,1.30
2018-12-19T05:36:58.770Z,1.30
2018-12-19T05:39:27.142Z,1.30
2018-12-19T05:41:55.511Z,1.40
2018-12-19T05:46:51.828Z,1.60
2018-12-19T05:49:20.164Z,1.50
2018-12-19T05:51:48.520Z,1.60
2018-12-19T05:54:16.974Z,1.60
2018-12-19T05:59:13.416Z,1.60
2018-12-19T06:01:41.715Z,1.50
2018-12-19T06:04:10.093Z,1.50
2018-12-19T06:06:38.525Z,1.50
2018-12-19T06:09:06.965Z,1.60
2018-12-19T06:11:35.387Z,1.70
2018-12-19T06:14:03.776Z,1.60
2018-12-19T06:16:32.137Z,1.80
2018-12-19T06:19:00.472Z,1.80
2018-12-19T06:21:28.876Z,1.90
2018-12-19T06:23:57.394Z,1.90
2018-12-19T06:26:25.672Z,2.00
2018-12-19T06:28:54.181Z,2.10
2018-12-19T06:33:50.744Z,2.10
2018-12-19T06:36:19.020Z,2.10
2018-12-19T06:38:47.353Z,2.10
2018-12-19T06:41:15.728Z,2.10
2018-12-19T06:43:44.141Z,2.10
2018-12-19T06:48:40.671Z,2.20
2018-12-19T06:51:09.235Z,2.20
2018-12-19T06:53:37.590Z,2.30
2018-12-19T06:56:05.981Z,2.30
2018-12-19T06:58:34.335Z,2.30
2018-12-19T07:01:02.705Z,2.20
2018-12-19T07:03:31.031Z,2.20
2018-12-19T07:05:59.321Z,2.10
2018-12-19T07:08:27.705Z,2.10
2018-12-19T07:10:56.090Z,2.50
2018-12-19T07:13:24.363Z,2.90
2018-12-19T07:15:52.667Z,2.90
2018-12-19T07:18:20.965Z,3.10
2018-12-19T07:20:49.451Z,3.20
2018-12-19T07:23:17.829Z,3.30
2018-12-19T07:25:46.235Z,3.50
2018-12-19T07:28:14.501Z,3.40
2018-12-19T07:30:42.883Z,3.40
2018-12-19T07:33:11.332Z,3.40
2018-12-19T07:35:39.662Z,3.40
2018-12-19T07:38:07.932Z,3.40
2018-12-19T07:40:36.400Z,3.30
2018-12-19T07:43:04.776Z,3.00
2018-12-19T07:45:33.123Z,2.90
2018-12-19T07:48:01.736Z,3.10
2018-12-19T07:50:30.037Z,3.20
2018-12-19T07:52:58.561Z,3.20
2018-12-19T07:55:28.627Z,3.20
2018-12-19T07:57:56.893Z,3.20
2018-12-19T08:00:27.567Z,3.20
2018-12-19T08:02:55.538Z,3.30
2018-12-19T08:05:26.321Z,3.40
2018-12-19T08:07:54.493Z,3.40
2018-12-19T08:10:22.789Z,3.30
2018-12-19T08:12:51.602Z,3.30
2018-12-19T08:15:20.100Z,3.30
2018-12-19T08:17:48.384Z,3.40
2018-12-19T08:20:16.672Z,3.40
2018-12-19T08:22:44.964Z,3.50
2018-12-19T08:25:13.251Z,3.60
2018-12-19T08:27:41.679Z,3.50
2018-12-19T08:30:10.401Z,3.60
2018-12-19T08:32:38.847Z,3.70
2018-12-19T08:35:07.258Z,3.70
2018-12-19T08:37:35.544Z,3.80
2018-12-19T08:40:04.236Z,3.80
2018-12-19T08:42:32.590Z,3.90
2018-12-19T08:45:00.944Z,4.00
2018-12-19T08:47:29.232Z,4.10
2018-12-19T08:49:57.624Z,4.00
2018-12-19T08:52:25.938Z,4.00
2018-12-19T08:54:54.266Z,3.90
2018-12-19T08:57:22.646Z,4.00
2018-12-19T08:59:50.950Z,4.10
2018-12-19T09:02:19.293Z,4.20
2018-12-19T09:04:47.649Z,4.40
2018-12-19T09:07:16.073Z,4.50
2018-12-19T09:09:44.425Z,4.40
2018-12-19T09:12:12.736Z,4.50
2018-12-19T09:14:41.090Z,4.60
2018-12-19T09:17:09.797Z,4.60
2018-12-19T09:19:38.356Z,4.60
2018-12-19T09:22:06.724Z,4.70
2018-12-19T09:24:35.004Z,4.60
2018-12-19T09:27:03.299Z,4.60
2018-12-19T09:29:31.653Z,4.80
2018-12-19T09:32:00.120Z,4.80
2018-12-19T09:34:28.590Z,4.80
2018-12-19T09:36:56.900Z,4.90
2018-12-19T09:39:25.379Z,5.00
2018-12-19T09:41:53.752Z,4.90
2018-12-19T09:44:22.022Z,4.80
2018-12-19T09:46:50.305Z,4.80
2018-12-19T09:49:18.579Z,4.70
2018-12-19T09:51:46.944Z,4.50
2018-12-19T09:54:15.226Z,4.50
2018-12-19T09:56:43.532Z,4.50
2018-12-19T09:59:11.788Z,4.60
2018-12-19T10:01:40.258Z,4.70
2018-12-19T10:04:08.530Z,4.80
2018-12-19T10:06:36.917Z,4.90
2018-12-19T10:09:08.885Z,5.00
2018-12-19T10:11:37.560Z,5.00
2018-12-19T10:14:05.947Z,5.00
2018-12-19T10:16:34.228Z,5.10
2018-12-19T10:19:02.616Z,5.10
2018-12-19T10:21:31.079Z,5.10
2018-12-19T10:23:59.448Z,5.20
2018-12-19T10:26:27.748Z,5.20
2018-12-19T10:28:56.173Z,5.30
2018-12-19T10:31:24.629Z,5.40
2018-12-19T10:33:52.953Z,5.40
2018-12-19T10:38:51.032Z,5.30
2018-12-19T10:41:25.318Z,5.20
2018-12-19T10:43:50.007Z,5.20
2018-12-19T10:46:18.661Z,5.30
2018-12-19T10:48:46.949Z,5.30
2018-12-19T10:53:43.352Z,5.00
2018-12-19T10:56:11.639Z,4.90
2018-12-19T10:58:40.036Z,4.90
2018-12-19T11:01:08.304Z,4.90
2018-12-19T11:03:36.742Z,4.90
2018-12-19T11:08:33.205Z,5.10
2018-12-19T11:11:01.487Z,5.10
2018-12-19T11:13:29.795Z,5.10
2018-12-19T11:15:58.110Z,5.10
2018-12-19T11:18:28.308Z,5.10
2018-12-19T11:20:56.677Z,5.10
2018-12-19T11:23:25.008Z,5.00
2018-12-19T11:25:53.292Z,5.00
2018-12-19T11:28:21.579Z,5.00
2018-12-19T11:30:49.856Z,5.00
2018-12-19T11:33:18.165Z,5.00
2018-12-19T11:35:46.482Z,5.00
2018-12-19T11:38:14.865Z,5.00
2018-12-19T11:40:43.149Z,5.10
2018-12-19T11:43:11.516Z,5.10
2018-12-19T11:45:39.795Z,5.10
2018-12-19T11:48:08.089Z,5.10
2018-12-19T11:50:36.489Z,5.10
2018-12-19T11:53:04.902Z,5.20
2018-12-19T11:55:33.208Z,5.20
2018-12-19T11:58:01.558Z,5.30
2018-12-19T12:00:29.938Z,5.20
2018-12-19T12:02:58.334Z,5.20
2018-12-19T12:05:26.688Z,5.20
2018-12-19T12:07:55.007Z,5.30
2018-12-19T12:12:51.457Z,5.30
2018-12-19T12:15:19.729Z,5.30
2018-12-19T12:20:16.069Z,5.30
2018-12-19T12:25:12.465Z,5.50
2018-12-19T12:27:40.792Z,5.50
2018-12-19T12:30:09.159Z,5.60
2018-12-19T12:32:37.436Z,5.60
2018-12-19T12:35:06.639Z,5.80
2018-12-19T12:37:35.056Z,5.70
2018-12-19T12:42:31.764Z,5.80
2018-12-19T12:45:00.245Z,5.90
2018-12-19T12:47:28.707Z,5.80
2018-12-19T12:49:57.103Z,5.80
2018-12-19T12:52:25.377Z,5.70
2018-12-19T12:54:53.753Z,5.70
2018-12-19T12:57:22.042Z,5.60
2018-12-19T12:59:50.408Z,5.70
2018-12-19T13:02:18.682Z,5.70
2018-12-19T13:04:47.008Z,5.70
2018-12-19T13:07:15.343Z,5.80
2018-12-19T13:09:43.720Z,5.70
2018-12-19T13:12:12.307Z,5.70
2018-12-19T13:14:40.697Z,5.80
2018-12-19T13:19:37.229Z,5.80
2018-12-19T13:22:05.537Z,5.80
2018-12-19T13:24:33.837Z,5.80
2018-12-19T13:27:02.164Z,5.80
2018-12-19T13:29:30.468Z,5.70
2018-12-19T13:31:59.539Z,5.70
2018-12-19T13:34:27.916Z,5.70
2018-12-19T13:36:56.356Z,5.80
2018-12-19T13:39:24.731Z,5.70
2018-12-19T13:41:53.036Z,5.70
2018-12-19T13:44:21.413Z,5.60
2018-12-19T13:46:49.669Z,5.50
2018-12-19T13:49:18.073Z,5.60
2018-12-19T13:51:46.448Z,5.60
2018-12-19T13:54:14.816Z,5.70
2018-12-19T13:56:43.108Z,5.70
2018-12-19T13:59:11.602Z,5.80
2018-12-19T14:01:39.868Z,5.80
2018-12-19T14:04:08.334Z,5.80
2018-12-19T14:06:36.602Z,5.70
2018-12-19T14:09:06.702Z,5.70
2018-12-19T14:11:35.078Z,5.70
2018-12-19T14:14:03.469Z,5.60
2018-12-19T14:16:31.937Z,5.50
2018-12-19T14:19:00.633Z,5.50
2018-12-19T14:21:29.029Z,5.40
2018-12-19T14:23:57.381Z,5.30
2018-12-19T14:26:26.004Z,5.20
2018-12-19T14:28:54.420Z,5.20
2018-12-19T14:31:22.986Z,5.20
2018-12-19T14:33:51.312Z,5.10
2018-12-19T14:36:19.796Z,5.00
2018-12-19T14:38:48.051Z,5.00
2018-12-19T14:41:16.343Z,5.00
2018-12-19T14:43:44.634Z,5.00
2018-12-19T14:46:13.008Z,5.00
2018-12-19T14:48:41.284Z,5.00
2018-12-19T14:51:09.864Z,5.00
2018-12-19T14:53:38.253Z,5.00
2018-12-19T14:56:06.645Z,5.00
2018-12-19T14:58:34.988Z,5.00
2018-12-19T15:01:03.362Z,4.90
2018-12-19T15:03:31.638Z,4.90
2018-12-19T15:05:59.925Z,4.90
2018-12-19T15:08:28.408Z,4.90
2018-12-19T15:10:56.789Z,4.90
2018-12-19T15:13:25.283Z,4.90
2018-12-19T15:15:59.207Z,4.90
2018-12-19T15:18:27.543Z,4.90
2018-12-19T15:20:55.835Z,4.90
2018-12-19T15:23:24.113Z,4.90
2018-12-19T15:25:52.405Z,4.90
2018-12-19T15:28:20.699Z,5.00
2018-12-19T15:30:49.233Z,5.00
2018-12-19T15:33:17.606Z,5.10
2018-12-19T15:35:45.928Z,5.10
2018-12-19T15:38:14.232Z,5.20
2018-12-19T15:40:42.610Z,5.20
2018-12-19T15:43:10.989Z,5.30
2018-12-19T15:45:39.294Z,5.30
2018-12-19T15:48:07.744Z,5.30
2018-12-19T15:50:36.045Z,5.30
2018-12-19T15:53:04.357Z,5.30
2018-12-19T15:55:32.853Z,5.30
2018-12-19T15:58:01.321Z,5.30
2018-12-19T16:00:29.654Z,5.30
2018-12-19T16:02:58.059Z,5.30
2018-12-19T16:05:26.392Z,5.30
2018-12-19T16:07:54.701Z,5.30
2018-12-19T16:10:22.961Z,5.30
2018-12-19T16:12:51.285Z,5.30
2018-12-19T16:15:19.615Z,5.30
2018-12-19T16:17:47.914Z,5.20
2018-12-19T16:20:16.188Z,5.10
2018-12-19T16:22:44.648Z,5.10
2018-12-19T16:25:12.940Z,5.00
2018-12-19T16:27:41.228Z,5.00
2018-12-19T16:32:37.999Z,5.00
2018-12-19T16:35:06.328Z,5.00
2018-12-19T16:37:34.711Z,5.00
2018-12-19T16:40:02.985Z,5.10
2018-12-19T16:42:31.370Z,5.10
2018-12-19T16:44:59.711Z,5.10
2018-12-19T16:47:28.012Z,5.00
2018-12-19T16:49:56.388Z,5.00
2018-12-19T16:52:24.695Z,5.10
2018-12-19T16:54:53.004Z,5.00
2018-12-19T16:57:21.422Z,5.00
2018-12-19T16:59:49.783Z,4.90
2018-12-19T17:02:18.184Z,4.90
2018-12-19T17:04:46.469Z,4.90
2018-12-19T17:07:14.832Z,4.90
2018-12-19T17:09:43.106Z,4.90
2018-12-19T17:12:11.409Z,4.90
2018-12-19T17:14:39.681Z,4.80
2018-12-19T17:17:08.049Z,4.80
2018-12-19T17:19:36.323Z,4.80
2018-12-19T17:22:04.620Z,4.80
2018-12-19T17:24:38.281Z,4.70
2018-12-19T17:27:06.669Z,4.70
2018-12-19T17:29:35.119Z,4.70
2018-12-19T17:32:03.901Z,4.70
2018-12-19T17:34:32.205Z,4.80
2018-12-19T17:39:28.685Z,4.80
2018-12-19T17:41:56.969Z,4.80
2018-12-19T17:46:53.584Z,4.70
2018-12-19T17:49:21.964Z,4.60
2018-12-19T17:51:50.346Z,4.60
2018-12-19T17:54:18.779Z,4.50
2018-12-19T17:59:15.161Z,4.50
2018-12-19T18:01:43.416Z,4.60
2018-12-19T18:04:11.801Z,4.60
2018-12-19T18:06:40.092Z,4.50
2018-12-19T18:11:36.466Z,4.50
2018-12-19T18:14:04.835Z,4.50
2018-12-19T18:16:33.172Z,4.50
2018-12-19T18:19:01.475Z,4.60
2018-12-19T18:21:29.948Z,4.60
2018-12-19T18:23:58.432Z,4.60
2018-12-19T18:33:51.241Z,4.60
2018-12-19T18:38:47.715Z,4.50
2018-12-19T18:41:16.057Z,4.40
2018-12-19T18:46:12.437Z,4.40
2018-12-19T18:51:08.957Z,4.30
2018-12-19T18:58:33.859Z,4.10
2018-12-19T19:01:02.270Z,4.20
2018-12-19T19:03:30.653Z,4.10
2018-12-19T19:08:27.560Z,4.00
2018-12-19T19:15:52.118Z,4.00
2018-12-19T19:18:20.416Z,4.10
2018-12-19T19:20:48.873Z,4.00
2018-12-19T19:23:17.244Z,4.10
2018-12-19T19:25:45.540Z,4.10
2018-12-19T19:28:14.504Z,4.00
2018-12-19T19:30:43.080Z,4.00
2018-12-19T19:33:12.702Z,4.10
2018-12-19T19:35:40.988Z,4.10
2018-12-19T19:38:09.297Z,4.10
2018-12-19T19:40:38.046Z,4.10
2018-12-19T19:43:06.358Z,4.10
2018-12-19T19:48:02.759Z,4.20
2018-12-19T19:50:31.063Z,4.20
2018-12-19T19:52:59.419Z,4.20
2018-12-19T19:55:27.919Z,4.20
2018-12-19T19:57:56.461Z,4.10
2018-12-19T20:00:29.243Z,4.10
2018-12-19T20:05:25.585Z,4.00
2018-12-19T20:07:53.849Z,4.00
2018-12-19T20:15:18.637Z,4.00
2018-12-19T20:17:46.909Z,4.00
2018-12-19T20:22:45.638Z,4.10
2018-12-19T20:27:42.448Z,4.10
2018-12-19T20:30:11.066Z,4.00
2018-12-19T20:42:31.791Z,4.10
2018-12-19T20:45:00.124Z,4.10
2018-12-19T20:49:56.562Z,4.00
2018-12-19T20:54:52.918Z,4.00
2018-12-19T20:57:21.251Z,4.00
2018-12-19T21:02:17.583Z,3.80
2018-12-19T21:09:42.307Z,3.50
2018-12-19T21:12:10.648Z,3.30
2018-12-19T21:14:39.018Z,3.30
2018-12-19T21:17:12.848Z,3.20
2018-12-19T21:19:41.194Z,3.20
2018-12-19T21:22:10.802Z,3.10
2018-12-19T21:24:39.235Z,3.20
2018-12-19T21:27:07.627Z,3.10
2018-12-19T21:29:36.000Z,3.10
2018-12-19T21:34:32.419Z,3.20
2018-12-19T21:39:30.811Z,3.20
2018-12-19T21:41:59.155Z,3.20
2018-12-19T21:44:27.711Z,3.20
2018-12-19T21:46:56.049Z,3.20
2018-12-19T21:49:25.244Z,3.30
2018-12-19T21:51:53.680Z,3.30
2018-12-19T21:54:22.247Z,3.30
2018-12-19T21:56:50.678Z,3.30
2018-12-19T21:59:19.153Z,3.30
2018-12-19T22:01:47.471Z,3.30
2018-12-19T22:04:15.863Z,3.30
2018-12-19T22:06:44.203Z,3.40
2018-12-19T22:09:12.875Z,3.40
2018-12-19T22:11:41.197Z,3.40
2018-12-19T22:14:09.502Z,3.40
2018-12-19T22:16:43.300Z,3.40
2018-12-19T22:19:11.675Z,3.40
2018-12-19T22:21:40.218Z,3.40
2018-12-19T22:24:08.490Z,3.40
2018-12-19T22:26:36.806Z,3.50
2018-12-19T22:29:05.152Z,3.50
2018-12-19T22:31:33.697Z,3.50
2018-12-19T22:34:02.262Z,3.50
2018-12-19T22:36:30.559Z,3.50
2018-12-19T22:38:58.931Z,3.50
2018-12-19T22:41:27.453Z,3.50
2018-12-19T22:43:55.715Z,3.50
2018-12-19T22:46:24.124Z,3.40
2018-12-19T22:48:52.563Z,3.40
2018-12-19T22:51:21.146Z,3.40
2018-12-19T22:56:17.482Z,3.40
2018-12-19T23:01:19.598Z,3.50
2018-12-19T23:06:22.290Z,3.50
2018-12-19T23:11:18.733Z,3.50
2018-12-19T23:13:47.066Z,3.60
2018-12-19T23:16:15.719Z,3.60
2018-12-19T23:18:44.004Z,3.70
2018-12-19T23:21:12.670Z,3.70
2018-12-19T23:23:40.954Z,3.80
2018-12-19T23:26:09.393Z,3.90
2018-12-19T23:28:37.948Z,3.90
2018-12-19T23:31:06.578Z,3.90
2018-12-19T23:36:03.139Z,4.50
2018-12-19T23:38:31.739Z,3.90
2018-12-19T23:41:00.453Z,3.90
2018-12-19T23:45:57.422Z,3.90
2018-12-19T23:48:25.941Z,3.90
2018-12-19T23:53:22.800Z,3.90
2018-12-19T23:55:51.208Z,4.00
2018-12-19T23:58:19.774Z,4.00
